^^
Station Historical Data
Daily Summary for February 25, 2017 Units:  English    Metric   Both
« Previous Day
Next Day »
Daily Weekly Monthly Yearly Custom
  High: Low: Average:
Temperature: 71.4 °F 40.4 °F 57.8 °F
Dew Point: 58.5 °F 26.5 °F 50.5 °F
Humidity: 89 % 56 % 77 %
Wind Speed: 21.0 mph 0.0 mph 8.2 mph
Wind Gust: 36.8 mph - -
Wind:- - SW
Pressure: 29.80 in 29.37 in -
Precipitation: 0.49 in    
Historical Graphs
 
 
Tabular Data for February 25, 2017
Time Temperature Dew Point Pressure Wind Wind Speed Wind Gust Humidity Rainfall Rate (Hourly) solar Conditions
00:02 61.6 °F 57.4 °F 29.80 in SSE 7.3 mph 11.5 mph 86 % 0.00 in 0.0 W/m2 CLR
00:07 61.7 °F 57.1 °F 29.80 in South 6.0 mph 10.4 mph 85 % 0.00 in 0.0 W/m2 CLR
00:12 61.7 °F 57.1 °F 29.80 in South 5.4 mph 10.4 mph 85 % 0.00 in 0.0 W/m2 CLR
00:17 61.9 °F 57.3 °F 29.80 in South 7.2 mph 11.5 mph 85 % 0.00 in 0.0 W/m2 CLR
00:22 62.0 °F 57.4 °F 29.80 in South 9.2 mph 11.5 mph 85 % 0.00 in 0.0 W/m2 CLR
00:27 62.0 °F 57.4 °F 29.80 in South 8.2 mph 12.0 mph 85 % 0.00 in 0.0 W/m2 CLR
00:33 62.1 °F 57.5 °F 29.79 in South 8.7 mph 13.8 mph 85 % 0.00 in 0.0 W/m2 CLR
00:38 62.1 °F 57.5 °F 29.79 in South 12.5 mph 17.3 mph 85 % 0.00 in 0.0 W/m2 CLR
00:43 62.1 °F 57.5 °F 29.79 in SSE 7.5 mph 14.0 mph 85 % 0.00 in 0.0 W/m2 CLR
00:48 62.1 °F 57.5 °F 29.79 in SSW 6.3 mph 9.2 mph 85 % 0.00 in 0.0 W/m2 CLR
00:53 62.1 °F 57.5 °F 29.79 in SW 8.4 mph 11.5 mph 85 % 0.00 in 0.0 W/m2 CLR
00:58 62.1 °F 57.5 °F 29.79 in South 7.0 mph 12.7 mph 85 % 0.00 in 0.0 W/m2 CLR
01:03 62.1 °F 57.2 °F 29.79 in SSW 9.1 mph 13.8 mph 84 % 0.00 in 0.0 W/m2 CLR
01:08 62.1 °F 57.2 °F 29.79 in South 9.2 mph 13.8 mph 84 % 0.00 in 0.0 W/m2 CLR
01:13 62.1 °F 57.2 °F 29.79 in South 9.3 mph 12.7 mph 84 % 0.00 in 0.0 W/m2 CLR
01:18 62.0 °F 57.1 °F 29.79 in SSW 7.1 mph 11.5 mph 84 % 0.00 in 0.0 W/m2 CLR
01:23 62.0 °F 57.1 °F 29.79 in SSW 10.5 mph 13.8 mph 84 % 0.00 in 0.0 W/m2 CLR
01:28 61.9 °F 57.0 °F 29.79 in SSW 8.4 mph 11.0 mph 84 % 0.00 in 0.0 W/m2 CLR
01:33 61.9 °F 57.0 °F 29.79 in SSW 7.7 mph 11.5 mph 84 % 0.00 in 0.0 W/m2 CLR
01:38 61.9 °F 57.0 °F 29.79 in South 10.7 mph 12.7 mph 84 % 0.00 in 0.0 W/m2 CLR
01:43 61.8 °F 56.9 °F 29.79 in South 7.4 mph 10.4 mph 84 % 0.00 in 0.0 W/m2 CLR
01:48 61.7 °F 56.8 °F 29.79 in South 9.8 mph 13.8 mph 84 % 0.00 in 0.0 W/m2 CLR
01:53 61.6 °F 56.7 °F 29.79 in South 10.7 mph 13.8 mph 84 % 0.00 in 0.0 W/m2 CLR
01:58 61.5 °F 56.6 °F 29.78 in South 7.3 mph 11.5 mph 84 % 0.00 in 0.0 W/m2 CLR
02:03 61.4 °F 56.5 °F 29.78 in SSE 10.6 mph 12.7 mph 84 % 0.00 in 0.0 W/m2 CLR
02:08 61.4 °F 56.5 °F 29.78 in South 8.9 mph 12.7 mph 84 % 0.00 in 0.0 W/m2 CLR
02:13 61.3 °F 56.8 °F 29.77 in SW 7.6 mph 11.5 mph 85 % 0.00 in 0.0 W/m2 CLR
02:18 61.2 °F 56.7 °F 29.77 in South 11.6 mph 21.9 mph 85 % 0.00 in 0.0 W/m2 CLR
02:23 61.1 °F 56.2 °F 29.77 in South 8.2 mph 10.4 mph 84 % 0.00 in 0.0 W/m2 CLR
02:28 60.9 °F 56.4 °F 29.76 in SSW 8.4 mph 11.5 mph 85 % 0.00 in 0.0 W/m2 CLR
02:33 60.8 °F 56.3 °F 29.76 in South 12.7 mph 13.8 mph 85 % 0.00 in 0.0 W/m2 CLR
02:38 60.7 °F 56.2 °F 29.76 in South 9.8 mph 17.3 mph 85 % 0.00 in 0.0 W/m2 CLR
02:43 60.6 °F 56.1 °F 29.76 in SSW 6.8 mph 11.5 mph 85 % 0.00 in 0.0 W/m2 CLR
02:48 60.5 °F 56.0 °F 29.75 in SSE 8.9 mph 11.5 mph 85 % 0.00 in 0.0 W/m2 CLR
02:53 60.5 °F 56.0 °F 29.75 in SSW 8.7 mph 12.7 mph 85 % 0.00 in 0.0 W/m2 CLR
02:58 60.5 °F 56.3 °F 29.75 in SSE 6.8 mph 11.5 mph 86 % 0.00 in 0.0 W/m2 CLR
03:03 60.4 °F 56.2 °F 29.75 in South 8.4 mph 11.5 mph 86 % 0.00 in 0.0 W/m2 CLR
03:08 60.4 °F 56.2 °F 29.75 in South 9.4 mph 13.8 mph 86 % 0.00 in 0.0 W/m2 CLR
03:13 60.4 °F 56.2 °F 29.75 in SE 7.4 mph 11.5 mph 86 % 0.00 in 0.0 W/m2 CLR
03:18 60.4 °F 56.2 °F 29.75 in South 8.7 mph 10.4 mph 86 % 0.00 in 0.0 W/m2 CLR
03:23 60.3 °F 56.1 °F 29.74 in South 5.0 mph 8.1 mph 86 % 0.00 in 0.0 W/m2 CLR
03:28 60.2 °F 56.0 °F 29.74 in SSE 7.8 mph 13.0 mph 86 % 0.00 in 0.0 W/m2 CLR
03:33 60.2 °F 56.0 °F 29.74 in South 7.5 mph 9.2 mph 86 % 0.00 in 0.0 W/m2 CLR
03:38 60.2 °F 56.0 °F 29.74 in South 8.6 mph 10.4 mph 86 % 0.00 in 0.0 W/m2 CLR
03:43 60.1 °F 55.9 °F 29.74 in SSW 6.0 mph 9.0 mph 86 % 0.00 in 0.0 W/m2 CLR
03:48 60.0 °F 55.8 °F 29.74 in South 3.0 mph 9.2 mph 86 % 0.00 in 0.0 W/m2 CLR
03:53 59.9 °F 55.7 °F 29.74 in SSW 8.7 mph 17.3 mph 86 % 0.00 in 0.0 W/m2 CLR
03:58 60.0 °F 55.8 °F 29.74 in SSW 7.3 mph 12.7 mph 86 % 0.00 in 0.0 W/m2 CLR
04:03 59.8 °F 55.6 °F 29.74 in South 10.7 mph 13.0 mph 86 % 0.00 in 0.0 W/m2 CLR
04:08 59.7 °F 55.5 °F 29.74 in South 7.1 mph 13.8 mph 86 % 0.00 in 0.0 W/m2 CLR
04:13 59.7 °F 55.5 °F 29.73 in SSW 9.2 mph 11.5 mph 86 % 0.00 in 0.0 W/m2 CLR
04:18 59.6 °F 55.7 °F 29.73 in SSW 5.3 mph 13.8 mph 87 % 0.00 in 0.0 W/m2 CLR
04:23 59.5 °F 55.6 °F 29.73 in South 7.4 mph 10.4 mph 87 % 0.00 in 0.0 W/m2 CLR
04:28 59.4 °F 55.5 °F 29.73 in South 4.9 mph 10.0 mph 87 % 0.00 in 0.0 W/m2 CLR
04:33 59.3 °F 55.4 °F 29.73 in South 8.7 mph 11.5 mph 87 % 0.00 in 0.0 W/m2 CLR
04:38 59.3 °F 55.4 °F 29.73 in SSW 7.2 mph 11.5 mph 87 % 0.00 in 0.0 W/m2 CLR
04:44 59.2 °F 55.3 °F 29.74 in SSW 7.2 mph 9.2 mph 87 % 0.00 in 0.0 W/m2 CLR
04:49 59.1 °F 55.2 °F 29.74 in South 1.5 mph 5.0 mph 87 % 0.00 in 0.0 W/m2 CLR
04:54 59.1 °F 55.2 °F 29.74 in SSW 0.1 mph 1.2 mph 87 % 0.00 in 0.0 W/m2 CLR
04:59 59.0 °F 55.1 °F 29.74 in SW 1.6 mph 3.5 mph 87 % 0.00 in 0.0 W/m2 CLR
05:04 59.1 °F 55.5 °F 29.73 in SW 1.1 mph 3.5 mph 88 % 0.00 in 0.0 W/m2 CLR
05:09 59.1 °F 55.2 °F 29.73 in SW 2.7 mph 3.5 mph 87 % 0.00 in 0.0 W/m2 CLR
05:14 59.2 °F 55.3 °F 29.73 in West 0.7 mph 3.5 mph 87 % 0.00 in 0.0 W/m2 CLR
05:19 59.2 °F 55.3 °F 29.73 in WSW 2.0 mph 5.0 mph 87 % 0.00 in 0.0 W/m2 CLR
05:24 59.2 °F 55.3 °F 29.73 in Calm   1.2 mph 87 % 0.00 in 0.0 W/m2 CLR
05:29 59.1 °F 55.2 °F 29.73 in Calm     87 % 0.00 in 0.0 W/m2 CLR
05:34 58.8 °F 54.9 °F 29.72 in Calm     87 % 0.00 in 0.0 W/m2 CLR
05:39 58.5 °F 55.0 °F 29.72 in West 1.1 mph 3.0 mph 88 % 0.00 in 0.0 W/m2 CLR
05:44 58.6 °F 55.1 °F 29.72 in Calm     88 % 0.00 in 0.0 W/m2 CLR
05:49 58.7 °F 55.2 °F 29.72 in West 0.5 mph 3.5 mph 88 % 0.00 in 0.0 W/m2 CLR
05:54 58.8 °F 55.3 °F 29.71 in SSE 4.8 mph 8.1 mph 88 % 0.00 in 0.0 W/m2 CLR
05:59 58.8 °F 55.3 °F 29.71 in South 5.1 mph 6.9 mph 88 % 0.00 in 0.0 W/m2 CLR
06:04 58.9 °F 55.4 °F 29.70 in South 5.0 mph 10.4 mph 88 % 0.00 in 0.0 W/m2 CLR
06:09 58.9 °F 55.4 °F 29.70 in South 7.4 mph 11.0 mph 88 % 0.00 in 0.0 W/m2 CLR
06:14 58.8 °F 55.3 °F 29.70 in SSE 7.4 mph 10.0 mph 88 % 0.00 in 0.0 W/m2 CLR
06:19 58.9 °F 55.4 °F 29.70 in South 9.2 mph 13.8 mph 88 % 0.00 in 0.0 W/m2 CLR
06:24 58.8 °F 55.3 °F 29.69 in SE 8.7 mph 15.0 mph 88 % 0.00 in 0.0 W/m2 CLR
06:29 58.7 °F 55.2 °F 29.69 in SSW 10.1 mph 17.3 mph 88 % 0.00 in 0.0 W/m2 CLR
06:34 58.7 °F 55.2 °F 29.69 in SSW 8.9 mph 12.7 mph 88 % 0.00 in 0.0 W/m2 CLR
06:39 58.6 °F 55.1 °F 29.69 in South 13.4 mph 17.3 mph 88 % 0.00 in 0.0 W/m2 CLR
06:44 58.7 °F 55.2 °F 29.69 in South 9.2 mph 15.0 mph 88 % 0.00 in 0.0 W/m2 CLR
06:49 58.7 °F 55.2 °F 29.69 in South 13.5 mph 19.6 mph 88 % 0.00 in 5.0 W/m2 CLR
06:54 58.6 °F 55.4 °F 29.69 in South 10.2 mph 16.1 mph 89 % 0.00 in 9.0 W/m2 CLR
06:59 58.6 °F 55.4 °F 29.69 in South 12.9 mph 16.1 mph 89 % 0.00 in 12.0 W/m2 CLR
07:04 58.6 °F 55.4 °F 29.69 in South 7.7 mph 12.7 mph 89 % 0.00 in 12.0 W/m2 CLR
07:09 58.6 °F 55.4 °F 29.69 in South 12.0 mph 17.3 mph 89 % 0.00 in 14.0 W/m2 CLR
07:14 58.5 °F 55.3 °F 29.69 in South 10.3 mph 11.5 mph 89 % 0.00 in 16.0 W/m2 CLR
07:19 58.5 °F 55.3 °F 29.69 in SSE 11.1 mph 15.0 mph 89 % 0.00 in 21.0 W/m2 CLR
07:24 58.5 °F 55.3 °F 29.69 in South 7.7 mph 11.5 mph 89 % 0.00 in 35.0 W/m2 CLR
07:29 58.5 °F 55.3 °F 29.68 in SSE 10.2 mph 18.4 mph 89 % 0.00 in 42.0 W/m2 FEW
07:34 58.7 °F 55.5 °F 29.68 in SSE 10.0 mph 15.0 mph 89 % 0.00 in 54.0 W/m2 FEW
07:39 58.7 °F 55.5 °F 29.68 in South 8.3 mph 15.0 mph 89 % 0.00 in 58.0 W/m2 FEW
07:44 58.8 °F 55.6 °F 29.68 in SE 6.5 mph 15.0 mph 89 % 0.00 in 65.0 W/m2 CLR
07:49 58.8 °F 55.6 °F 29.68 in South 8.0 mph 12.7 mph 89 % 0.00 in 79.0 W/m2 SCT
07:54 58.8 °F 55.6 °F 29.68 in South 8.0 mph 13.8 mph 89 % 0.00 in 63.0 W/m2 SCT
07:59 58.9 °F 55.7 °F 29.68 in South 8.5 mph 13.8 mph 89 % 0.00 in 84.0 W/m2 SCT
08:04 59.1 °F 55.9 °F 29.68 in South 11.8 mph 16.1 mph 89 % 0.00 in 91.0 W/m2 SCT
08:09 59.2 °F 56.0 °F 29.68 in South 6.8 mph 15.0 mph 89 % 0.00 in 141.0 W/m2 FEW
08:14 59.5 °F 56.3 °F 29.68 in South 9.0 mph 10.4 mph 89 % 0.00 in 223.0 W/m2 CLR
08:19 59.9 °F 56.6 °F 29.67 in SSE 8.0 mph 15.0 mph 89 % 0.00 in 241.0 W/m2 CLR
08:24 60.2 °F 56.6 °F 29.68 in South 12.0 mph 16.0 mph 88 % 0.00 in 169.0 W/m2 FEW
08:29 60.5 °F 56.9 °F 29.68 in South 8.4 mph 13.8 mph 88 % 0.00 in 260.0 W/m2 CLR
08:34 60.7 °F 56.8 °F 29.68 in SSW 7.1 mph 13.8 mph 87 % 0.00 in 443.0 W/m2 CLR
08:39 60.9 °F 57.0 °F 29.67 in SSW 9.9 mph 12.7 mph 87 % 0.00 in 172.0 W/m2 FEW
08:44 60.9 °F 57.0 °F 29.67 in SSW 8.9 mph 11.5 mph 87 % 0.00 in 441.0 W/m2 CLR
08:49 61.2 °F 57.0 °F 29.67 in South 8.0 mph 15.0 mph 86 % 0.00 in 160.0 W/m2 SCT
08:54 61.2 °F 57.0 °F 29.67 in South 8.0 mph 13.0 mph 86 % 0.00 in 202.0 W/m2 SCT
08:59 61.1 °F 56.9 °F 29.66 in SSE 5.0 mph 6.0 mph 86 % 0.00 in 169.0 W/m2 FEW
09:04 61.1 °F 56.9 °F 29.66 in SSE 8.0 mph 12.0 mph 86 % 0.00 in 190.0 W/m2 SCT
09:09 61.2 °F 57.0 °F 29.67 in SSE 7.0 mph 12.0 mph 86 % 0.00 in 230.0 W/m2 SCT
09:14 61.3 °F 57.1 °F 29.66 in South 7.2 mph 8.1 mph 86 % 0.00 in 220.0 W/m2 SCT
09:19 61.5 °F 57.3 °F 29.66 in SSE 3.7 mph 6.9 mph 86 % 0.00 in 172.0 W/m2 BKN
09:24 61.6 °F 57.0 °F 29.66 in SE 4.1 mph 4.6 mph 85 % 0.00 in 100.0 W/m2 BKN
09:30 61.6 °F 57.0 °F 29.66 in South 4.3 mph 6.9 mph 85 % 0.00 in 63.0 W/m2 OVC
09:35 61.6 °F 57.0 °F 29.66 in South 6.0 mph 10.4 mph 85 % 0.00 in 58.0 W/m2 OVC
09:40 61.6 °F 57.0 °F 29.66 in South 8.9 mph 11.5 mph 85 % 0.00 in 62.0 W/m2 OVC
09:45 61.9 °F 57.3 °F 29.65 in South 6.0 mph 10.4 mph 85 % 0.00 in 156.0 W/m2 BKN
09:50 62.3 °F 57.4 °F 29.65 in South 4.9 mph 7.0 mph 84 % 0.00 in 116.0 W/m2 BKN
09:55 62.6 °F 57.4 °F 29.65 in SSE 3.2 mph 4.6 mph 83 % 0.00 in 183.0 W/m2 BKN
10:00 62.9 °F 57.3 °F 29.65 in SE 9.3 mph 17.3 mph 82 % 0.00 in 186.0 W/m2 BKN
10:05 63.2 °F 57.3 °F 29.64 in SSE 6.1 mph 11.5 mph 81 % 0.00 in 202.0 W/m2 BKN
10:10 63.6 °F 57.3 °F 29.64 in SSE 8.4 mph 13.8 mph 80 % 0.00 in 214.0 W/m2 BKN
10:15 64.1 °F 57.5 °F 29.64 in South 7.9 mph 11.5 mph 79 % 0.00 in 308.0 W/m2 FEW
10:20 64.6 °F 57.6 °F 29.63 in SE 6.6 mph 11.5 mph 78 % 0.00 in 260.0 W/m2 SCT
10:25 64.9 °F 57.5 °F 29.63 in South 6.2 mph 11.5 mph 77 % 0.00 in 267.0 W/m2 FEW
10:30 65.7 °F 57.9 °F 29.63 in SSW 8.3 mph 14.0 mph 76 % 0.00 in 814.0 W/m2 CLR
10:35 66.1 °F 57.9 °F 29.62 in South 6.6 mph 12.7 mph 75 % 0.00 in 446.0 W/m2 CLR
10:40 66.3 °F 57.8 °F 29.62 in South 10.5 mph 17.3 mph 74 % 0.00 in 650.0 W/m2 CLR
10:45 66.6 °F 57.7 °F 29.61 in SE 10.0 mph 15.0 mph 73 % 0.00 in 348.0 W/m2 CLR
10:50 67.0 °F 58.1 °F 29.61 in South 8.5 mph 11.5 mph 73 % 0.00 in 540.0 W/m2 CLR
10:55 67.3 °F 58.0 °F 29.61 in South 7.1 mph 13.8 mph 72 % 0.00 in 255.0 W/m2 SCT
11:00 67.4 °F 57.7 °F 29.60 in SSE 10.8 mph 19.6 mph 71 % 0.00 in 663.0 W/m2 CLR
11:05 67.3 °F 57.6 °F 29.60 in South 9.3 mph 13.8 mph 71 % 0.00 in 577.0 W/m2 CLR
11:10 67.6 °F 57.9 °F 29.61 in ESE 8.5 mph 13.8 mph 71 % 0.00 in 791.0 W/m2 CLR
11:15 67.5 °F 57.8 °F 29.60 in SSE 9.8 mph 10.4 mph 71 % 0.00 in 775.0 W/m2 CLR
11:20 67.5 °F 57.8 °F 29.60 in SSE 7.6 mph 12.7 mph 71 % 0.00 in 773.0 W/m2 CLR
11:25 67.8 °F 57.7 °F 29.60 in SSE 12.8 mph 18.0 mph 70 % 0.00 in 889.0 W/m2 CLR
11:30 68.0 °F 57.8 °F 29.59 in South 12.5 mph 16.1 mph 70 % 0.00 in 434.0 W/m2 FEW
11:35 67.5 °F 57.4 °F 29.59 in SE 10.9 mph 19.6 mph 70 % 0.00 in 214.0 W/m2 BKN
11:40 67.3 °F 57.6 °F 29.59 in South 7.8 mph 13.8 mph 71 % 0.00 in 155.0 W/m2 BKN
11:45 67.2 °F 57.5 °F 29.58 in SSE 7.5 mph 11.5 mph 71 % 0.00 in 207.0 W/m2 BKN
11:50 67.1 °F 57.4 °F 29.58 in South 10.5 mph 13.8 mph 71 % 0.00 in 258.0 W/m2 BKN
11:55 67.5 °F 57.8 °F 29.57 in SSE 7.4 mph 12.7 mph 71 % 0.00 in 272.0 W/m2 BKN
12:00 68.2 °F 58.0 °F 29.57 in South 10.1 mph 11.5 mph 70 % 0.00 in 229.0 W/m2 BKN
12:05 68.0 °F 57.4 °F 29.57 in South 13.8 mph 21.9 mph 69 % 0.00 in 195.0 W/m2 BKN
12:10 68.0 °F 57.4 °F 29.56 in SSE 13.7 mph 17.0 mph 69 % 0.00 in 197.0 W/m2 BKN
12:15 68.1 °F 57.5 °F 29.56 in South 6.9 mph 12.7 mph 69 % 0.00 in 206.0 W/m2 BKN
12:20 68.1 °F 57.5 °F 29.56 in South 9.6 mph 10.4 mph 69 % 0.00 in 132.0 W/m2 OVC
12:25 68.3 °F 57.7 °F 29.55 in South 8.6 mph 12.7 mph 69 % 0.00 in 236.0 W/m2 BKN
12:30 68.4 °F 57.4 °F 29.55 in South 9.0 mph 16.1 mph 68 % 0.00 in 207.0 W/m2 OVC
12:35 68.9 °F 57.9 °F 29.54 in South 6.7 mph 16.1 mph 68 % 0.00 in 334.0 W/m2 SCT
12:40 69.0 °F 58.0 °F 29.54 in South 10.8 mph 17.3 mph 68 % 0.00 in 325.0 W/m2 SCT
12:46 69.2 °F 58.2 °F 29.53 in South 8.8 mph 11.5 mph 68 % 0.00 in 425.0 W/m2 FEW
12:51 69.5 °F 58.1 °F 29.53 in South 13.6 mph 19.6 mph 67 % 0.00 in 429.0 W/m2 FEW
12:56 69.3 °F 58.3 °F 29.53 in SSE 8.3 mph 12.7 mph 68 % 0.00 in 308.0 W/m2 SCT
13:01 69.5 °F 58.5 °F 29.52 in South 7.6 mph 11.5 mph 68 % 0.00 in 459.0 W/m2 CLR
13:06 69.4 °F 58.0 °F 29.51 in South 9.4 mph 17.3 mph 67 % 0.00 in 239.0 W/m2 BKN
13:11 69.1 °F 58.1 °F 29.51 in SSW 10.4 mph 17.3 mph 68 % 0.00 in 193.0 W/m2 BKN
13:16 69.0 °F 58.0 °F 29.50 in SSE 9.0 mph 11.5 mph 68 % 0.00 in 149.0 W/m2 BKN
13:21 68.7 °F 57.7 °F 29.50 in South 5.5 mph 10.4 mph 68 % 0.00 in 123.0 W/m2 OVC
13:26 68.7 °F 57.7 °F 29.50 in SE 7.9 mph 11.0 mph 68 % 0.00 in 102.0 W/m2 OVC
13:31 68.5 °F 57.5 °F 29.49 in SE 9.9 mph 15.0 mph 68 % 0.00 in 67.0 W/m2 OVC
13:36 68.4 °F 57.8 °F 29.49 in South 10.7 mph 20.7 mph 69 % 0.00 in 98.0 W/m2 OVC
13:41 68.4 °F 57.8 °F 29.48 in South 10.6 mph 16.1 mph 69 % 0.00 in 214.0 W/m2 OVC
13:46 68.8 °F 57.8 °F 29.48 in South 9.4 mph 13.8 mph 68 % 0.00 in 239.0 W/m2 BKN
13:51 69.5 °F 58.5 °F 29.47 in South 7.3 mph 10.4 mph 68 % 0.00 in 388.0 W/m2 SCT
13:56 69.6 °F 58.2 °F 29.46 in SSE 9.0 mph 17.3 mph 67 % 0.00 in 288.0 W/m2 CLR
14:01 70.0 °F 58.5 °F 29.46 in SE 10.2 mph 15.0 mph 67 % 0.00 in 471.0 W/m2 FEW
14:06 70.3 °F 58.4 °F 29.45 in SSW 8.8 mph 20.0 mph 66 % 0.00 in 234.0 W/m2 FEW
14:11 70.4 °F 58.5 °F 29.43 in SSE 11.2 mph 16.1 mph 66 % 0.00 in 489.0 W/m2 CLR
14:16 70.4 °F 58.5 °F 29.42 in SE 12.5 mph 19.6 mph 66 % 0.00 in 563.0 W/m2 CLR
14:21 70.6 °F 58.3 °F 29.42 in SSE 11.5 mph 20.0 mph 65 % 0.00 in 540.0 W/m2 CLR
14:26 70.8 °F 58.4 °F 29.41 in South 12.5 mph 19.6 mph 65 % 0.00 in 529.0 W/m2 CLR
14:31 71.1 °F 58.3 °F 29.41 in SE 10.5 mph 16.1 mph 64 % 0.00 in 538.0 W/m2 CLR
14:36 71.2 °F 58.4 °F 29.40 in SSE 12.1 mph 18.4 mph 64 % 0.00 in 325.0 W/m2 CLR
14:41 71.2 °F 58.4 °F 29.39 in SSE 9.4 mph 10.0 mph 64 % 0.00 in 325.0 W/m2 FEW
14:46 71.4 °F 58.1 °F 29.38 in SSE 10.0 mph 19.6 mph 63 % 0.00 in 141.0 W/m2 CLR
14:51 70.7 °F 57.9 °F 29.38 in SE 12.5 mph 15.0 mph 64 % 0.00 in 120.0 W/m2 BKN
14:56 69.9 °F 57.6 °F 29.38 in SE 12.1 mph 20.7 mph 65 % 0.00 in 111.0 W/m2 OVC
15:01 69.7 °F 57.8 °F 29.38 in South 9.6 mph 15.0 mph 66 % 0.00 in 95.0 W/m2 OVC
15:06 69.6 °F 57.7 °F 29.38 in SSE 15.1 mph 21.9 mph 66 % 0.00 in 93.0 W/m2 OVC
15:11 69.8 °F 57.5 °F 29.37 in SSE 5.7 mph 10.4 mph 65 % 0.00 in 81.0 W/m2 OVC
15:16 69.7 °F 57.4 °F 29.37 in SSE 12.4 mph 21.0 mph 65 % 0.00 in 70.0 W/m2 OVC
15:21 69.7 °F 57.4 °F 29.37 in SE 10.0 mph 17.0 mph 65 % 0.00 in 69.0 W/m2 OVC
15:26 69.5 °F 57.2 °F 29.38 in SSE 10.4 mph 21.9 mph 65 % 0.00 in 58.0 W/m2 OVC
15:31 69.4 °F 57.1 °F 29.38 in South 13.7 mph 23.0 mph 65 % 0.00 in 53.0 W/m2 OVC
15:36 69.3 °F 57.0 °F 29.37 in SSE 9.6 mph 24.2 mph 65 % 0.00 in 26.0 W/m2 OVC
15:41 69.2 °F 56.9 °F 29.37 in South 9.4 mph 17.3 mph 65 % 0.00 in 33.0 W/m2 OVC
15:46 69.1 °F 57.3 °F 29.37 in South 16.1 mph 21.9 mph 66 % 0.00 in 11.0 W/m2 OVC
15:51 68.9 °F 57.1 °F 29.37 in SSE 12.8 mph 17.3 mph 66 % 0.00 in 5.0 W/m2 OVC
15:56 68.8 °F 57.0 °F 29.37 in South 8.2 mph 17.3 mph 66 % 0.00 in 5.0 W/m2 OVC
16:01 68.7 °F 56.9 °F 29.38 in South 10.0 mph 16.1 mph 66 % 0.00 in 5.0 W/m2 OVC
16:06 68.7 °F 57.3 °F 29.38 in South 14.2 mph 19.6 mph 67 % 0.00 in 5.0 W/m2 OVC
16:11 68.7 °F 57.3 °F 29.39 in SSW 12.7 mph 15.0 mph 67 % 0.00 in 0.0 W/m2 OVC
16:16 68.3 °F 56.1 °F 29.52 in NW 18.4 mph 36.8 mph 65 % 0.00 in 0.0 W/m2 OVC
16:21 60.8 °F 48.5 °F 29.51 in WSW 21.0 mph 34.5 mph 64 % 0.28 in 0.0 W/m2 RA
16:26 54.1 °F 44.9 °F 29.51 in WNW 18.2 mph 24.2 mph 71 % 0.43 in 0.0 W/m2 RA
16:32 51.2 °F 44.2 °F 29.47 in NW 10.4 mph 25.3 mph 77 % 0.45 in 0.0 W/m2 RA
16:37 49.8 °F 44.5 °F 29.46 in WNW 9.8 mph 17.3 mph 82 % 0.47 in 0.0 W/m2 RA
16:42 49.3 °F 44.7 °F 29.50 in WNW 14.5 mph 21.9 mph 84 % 0.48 in 0.0 W/m2 RA
16:47 49.3 °F 45.3 °F 29.52 in WSW 8.9 mph 13.8 mph 86 % 0.48 in 0.0 W/m2 RA
16:52 49.3 °F 45.3 °F 29.53 in West 6.5 mph 11.5 mph 86 % 0.48 in 0.0 W/m2
16:57 49.2 °F 45.5 °F 29.54 in WSW 6.3 mph 10.4 mph 87 % 0.48 in 0.0 W/m2 OVC
17:02 49.2 °F 45.8 °F 29.55 in West 6.6 mph 11.5 mph 88 % 0.48 in 0.0 W/m2 OVC
17:07 49.2 °F 45.8 °F 29.56 in NW 2.7 mph 4.6 mph 88 % 0.48 in 0.0 W/m2 OVC
17:12 49.2 °F 45.8 °F 29.56 in West 4.6 mph 8.1 mph 88 % 0.48 in 7.0 W/m2 OVC
17:17 49.3 °F 45.9 °F 29.57 in WNW 5.1 mph 9.2 mph 88 % 0.49 in 19.0 W/m2 RA
17:22 49.2 °F 45.8 °F 29.57 in WNW 8.3 mph 17.0 mph 88 % 0.16 in 14.0 W/m2 RA
17:27 49.1 °F 45.4 °F 29.57 in NW 9.8 mph 13.8 mph 87 % 0.06 in 5.0 W/m2
17:32 48.9 °F 45.2 °F 29.58 in NW 7.2 mph 12.0 mph 87 % 0.03 in 0.0 W/m2 OVC
17:37 48.6 °F 44.9 °F 29.59 in West 8.2 mph 10.4 mph 87 % 0.02 in 0.0 W/m2 OVC
17:42 48.7 °F 44.7 °F 29.60 in WNW 8.2 mph 15.0 mph 86 % 0.01 in 0.0 W/m2 OVC
17:47 48.5 °F 44.2 °F 29.60 in West 10.1 mph 17.3 mph 85 % 0.01 in 5.0 W/m2 CLR
17:52 48.1 °F 43.2 °F 29.60 in NW 10.1 mph 12.7 mph 83 % 0.01 in 5.0 W/m2 CLR
17:57 48.0 °F 42.4 °F 29.60 in WNW 10.3 mph 21.9 mph 81 % 0.01 in 0.0 W/m2 CLR
18:02 47.9 °F 41.7 °F 29.60 in NW 9.0 mph 16.1 mph 79 % 0.01 in 0.0 W/m2 CLR
18:07 47.8 °F 41.3 °F 29.59 in NW 5.8 mph 12.7 mph 78 % 0.01 in 0.0 W/m2 CLR
18:12 47.8 °F 40.9 °F 29.60 in WNW 5.1 mph 9.2 mph 77 % 0.01 in 0.0 W/m2 CLR
18:17 47.7 °F 40.8 °F 29.60 in WNW 8.6 mph 11.5 mph 77 % 0.00 in 0.0 W/m2 CLR
18:22 47.4 °F 40.6 °F 29.59 in NW 9.3 mph 12.0 mph 77 % 0.00 in 0.0 W/m2 CLR
18:27 47.3 °F 40.1 °F 29.59 in WNW 10.0 mph 17.3 mph 76 % 0.00 in 0.0 W/m2 CLR
18:32 47.2 °F 40.0 °F 29.59 in NW 8.3 mph 13.8 mph 76 % 0.00 in 0.0 W/m2 CLR
18:37 47.2 °F 40.0 °F 29.60 in NW 4.8 mph 8.1 mph 76 % 0.00 in 0.0 W/m2 CLR
18:42 47.2 °F 39.7 °F 29.61 in WNW 4.3 mph 11.5 mph 75 % 0.00 in 0.0 W/m2 CLR
18:47 47.2 °F 40.0 °F 29.61 in WNW 2.8 mph 6.9 mph 76 % 0.00 in 0.0 W/m2 CLR
18:52 47.2 °F 40.4 °F 29.63 in WNW 5.4 mph 5.4 mph 77 % 0.00 in 0.0 W/m2 CLR
18:57 47.0 °F 40.2 °F 29.62 in WNW 5.8 mph 10.4 mph 77 % 0.00 in 0.0 W/m2 CLR
19:02 47.0 °F 40.2 °F 29.63 in WSW 5.2 mph 8.1 mph 77 % 0.00 in 0.0 W/m2 CLR
19:08 47.0 °F 40.2 °F 29.63 in West 2.9 mph 3.5 mph 77 % 0.00 in 0.0 W/m2 CLR
19:13 47.0 °F 40.2 °F 29.64 in West 4.9 mph 7.0 mph 77 % 0.00 in 0.0 W/m2 CLR
19:18 46.9 °F 40.1 °F 29.63 in WNW 3.1 mph 5.8 mph 77 % 0.00 in 0.0 W/m2 CLR
19:23 46.6 °F 40.1 °F 29.62 in WNW 0.1 mph 1.2 mph 78 % 0.00 in 0.0 W/m2 CLR
19:28 46.1 °F 39.9 °F 29.61 in NW 2.9 mph 9.2 mph 79 % 0.00 in 0.0 W/m2 CLR
19:33 46.0 °F 39.9 °F 29.61 in WNW 0.6 mph 3.5 mph 79 % 0.00 in 0.0 W/m2 CLR
19:38 46.1 °F 39.9 °F 29.62 in Calm   1.2 mph 79 % 0.00 in 0.0 W/m2 CLR
19:43 46.1 °F 39.9 °F 29.61 in WNW 0.4 mph 3.5 mph 79 % 0.00 in 0.0 W/m2 CLR
19:48 46.0 °F 39.9 °F 29.62 in WNW 2.5 mph 6.9 mph 79 % 0.00 in 0.0 W/m2 CLR
19:53 46.1 °F 39.9 °F 29.62 in West 2.5 mph 5.8 mph 79 % 0.00 in 0.0 W/m2 CLR
19:58 46.0 °F 40.2 °F 29.62 in NW 1.0 mph 3.5 mph 80 % 0.00 in 0.0 W/m2 CLR
20:03 46.0 °F 39.9 °F 29.62 in WNW 2.1 mph 3.5 mph 79 % 0.00 in 0.0 W/m2 CLR
20:08 45.9 °F 39.8 °F 29.62 in WNW 1.5 mph 3.5 mph 79 % 0.00 in 0.0 W/m2 CLR
20:13 45.8 °F 39.7 °F 29.63 in WNW 1.0 mph 5.8 mph 79 % 0.00 in 0.0 W/m2 CLR
20:18 45.4 °F 39.3 °F 29.63 in WNW 0.9 mph 2.3 mph 79 % 0.00 in 0.0 W/m2 CLR
20:23 45.3 °F 39.5 °F 29.63 in Calm   3.5 mph 80 % 0.00 in 0.0 W/m2 CLR
20:28 45.2 °F 39.4 °F 29.63 in Calm     80 % 0.00 in 0.0 W/m2 CLR
20:33 44.9 °F 39.4 °F 29.63 in WNW 2.3 mph 4.6 mph 81 % 0.00 in 0.0 W/m2 CLR
20:38 45.1 °F 39.6 °F 29.64 in WNW 1.6 mph 4.0 mph 81 % 0.00 in 0.0 W/m2 CLR
20:43 45.3 °F 39.5 °F 29.64 in West 1.9 mph 8.1 mph 80 % 0.00 in 0.0 W/m2 CLR
20:48 45.6 °F 39.5 °F 29.64 in NW 4.2 mph 9.2 mph 79 % 0.00 in 0.0 W/m2 CLR
20:53 45.7 °F 39.2 °F 29.65 in WNW 9.1 mph 12.7 mph 78 % 0.00 in 0.0 W/m2 CLR
20:58 46.0 °F 38.9 °F 29.65 in WNW 11.8 mph 17.3 mph 76 % 0.00 in 0.0 W/m2 CLR
21:03 46.3 °F 38.8 °F 29.66 in WSW 7.2 mph 11.5 mph 75 % 0.00 in 0.0 W/m2 CLR
21:08 46.0 °F 37.8 °F 29.65 in WNW 10.5 mph 23.0 mph 73 % 0.00 in 0.0 W/m2 CLR
21:13 45.8 °F 35.8 °F 29.65 in West 10.6 mph 19.6 mph 68 % 0.00 in 0.0 W/m2 CLR
21:18 45.6 °F 34.9 °F 29.66 in WNW 11.6 mph 19.6 mph 66 % 0.00 in 0.0 W/m2 CLR
21:23 45.4 °F 34.7 °F 29.66 in WNW 13.4 mph 20.0 mph 66 % 0.00 in 0.0 W/m2 CLR
21:28 45.3 °F 34.2 °F 29.66 in WNW 12.4 mph 17.3 mph 65 % 0.00 in 0.0 W/m2 CLR
21:33 45.1 °F 33.6 °F 29.67 in WNW 12.3 mph 18.4 mph 64 % 0.00 in 0.0 W/m2 CLR
21:38 45.1 °F 33.2 °F 29.67 in WNW 13.5 mph 21.0 mph 63 % 0.00 in 0.0 W/m2 CLR
21:43 44.9 °F 32.7 °F 29.67 in NW 13.4 mph 15.0 mph 62 % 0.00 in 0.0 W/m2 CLR
21:44 44.9 °F 32.7 °F 29.67 in WNW 13.3 mph 19.6 mph 62 % 0.00 in 0.0 W/m2 CLR
21:49 44.8 °F 32.2 °F 29.66 in WNW 14.3 mph 20.7 mph 61 % 0.00 in 0.0 W/m2 CLR
21:54 44.7 °F 32.1 °F 29.67 in WNW 9.3 mph 13.8 mph 61 % 0.00 in 0.0 W/m2 CLR
21:59 44.5 °F 31.9 °F 29.67 in WNW 10.9 mph 16.1 mph 61 % 0.00 in 0.0 W/m2 CLR
22:04 44.5 °F 31.9 °F 29.68 in WNW 6.7 mph 11.5 mph 61 % 0.00 in 0.0 W/m2 CLR
22:09 44.4 °F 31.4 °F 29.69 in WNW 11.4 mph 17.3 mph 60 % 0.00 in 0.0 W/m2 CLR
22:14 44.4 °F 31.4 °F 29.70 in WSW 13.2 mph 19.6 mph 60 % 0.00 in 0.0 W/m2 CLR
22:19 44.3 °F 31.3 °F 29.70 in West 13.3 mph 16.1 mph 60 % 0.00 in 0.0 W/m2 CLR
22:24 44.2 °F 31.2 °F 29.71 in WNW 12.5 mph 17.3 mph 60 % 0.00 in 0.0 W/m2 CLR
22:29 44.0 °F 31.0 °F 29.71 in WNW 8.7 mph 13.0 mph 60 % 0.00 in 0.0 W/m2 CLR
22:34 43.8 °F 30.8 °F 29.72 in WNW 12.9 mph 17.0 mph 60 % 0.00 in 0.0 W/m2 CLR
22:39 43.4 °F 29.2 °F 29.72 in WNW 10.3 mph 21.0 mph 57 % 0.00 in 0.0 W/m2 CLR
22:44 43.1 °F 28.9 °F 29.72 in WNW 16.6 mph 20.7 mph 57 % 0.00 in 0.0 W/m2 CLR
22:49 42.7 °F 28.5 °F 29.72 in West 4.4 mph 9.2 mph 57 % 0.00 in 0.0 W/m2 CLR
22:54 42.5 °F 28.8 °F 29.73 in NW 5.7 mph 15.0 mph 58 % 0.00 in 0.0 W/m2 CLR
22:59 42.3 °F 28.6 °F 29.73 in West 11.7 mph 17.0 mph 58 % 0.00 in 0.0 W/m2 CLR
23:04 42.2 °F 27.6 °F 29.73 in West 8.6 mph 17.0 mph 56 % 0.00 in 0.0 W/m2 CLR
23:09 42.1 °F 27.5 °F 29.73 in WNW 8.7 mph 16.1 mph 56 % 0.00 in 0.0 W/m2 CLR
23:14 41.9 °F 27.8 °F 29.73 in WNW 9.1 mph 15.0 mph 57 % 0.00 in 0.0 W/m2 CLR
23:19 41.6 °F 27.5 °F 29.74 in WNW 13.1 mph 18.4 mph 57 % 0.00 in 0.0 W/m2 CLR
23:24 41.5 °F 27.4 °F 29.74 in West 13.9 mph 19.6 mph 57 % 0.00 in 0.0 W/m2 CLR
23:29 41.4 °F 27.3 °F 29.73 in West 12.6 mph 20.7 mph 57 % 0.00 in 0.0 W/m2 CLR
23:34 41.2 °F 27.5 °F 29.74 in NW 14.0 mph 18.4 mph 58 % 0.00 in 0.0 W/m2 CLR
23:39 41.0 °F 27.3 °F 29.74 in West 7.2 mph 16.0 mph 58 % 0.00 in 0.0 W/m2 CLR
23:44 40.8 °F 27.6 °F 29.74 in WSW 7.4 mph 15.0 mph 59 % 0.00 in 0.0 W/m2 CLR
23:49 40.7 °F 27.1 °F 29.75 in West 12.0 mph 20.0 mph 58 % 0.00 in 0.0 W/m2 CLR
23:54 40.6 °F 26.5 °F 29.76 in WNW 10.0 mph 20.0 mph 57 % 0.00 in 0.0 W/m2 CLR
23:59 40.4 °F 26.8 °F 29.76 in WNW 10.0 mph 17.3 mph 58 % 0.00 in 0.0 W/m2 CLR
Air Products Campus Weather
Compliments of Weather Underground - 3.5 mb